sensor_id;sensor_type;location;lat;lon;timestamp;pressure;altitude;pressure_sealevel;temperature;humidity
44138;BME280;29800;55.942;37.314;2023-03-11T00:00:37;98935.09;;;-5.17;57.25
44138;BME280;29800;55.942;37.314;2023-03-11T00:03:05;98925.25;;;-5.17;57.38
44138;BME280;29800;55.942;37.314;2023-03-11T00:05:37;98922.56;;;-5.17;57.18
44138;BME280;29800;55.942;37.314;2023-03-11T00:08:04;98923.78;;;-5.19;57.35
44138;BME280;29800;55.942;37.314;2023-03-11T00:10:36;98928.78;;;-5.16;57.45
44138;BME280;29800;55.942;37.314;2023-03-11T00:13:04;98922.41;;;-5.15;57.54
44138;BME280;29800;55.942;37.314;2023-03-11T00:15:31;98920.78;;;-5.16;57.60
44138;BME280;29800;55.942;37.314;2023-03-11T00:17:58;98916.41;;;-5.17;57.83
44138;BME280;29800;55.942;37.314;2023-03-11T00:20:30;98913.41;;;-5.14;57.59
44138;BME280;29800;55.942;37.314;2023-03-11T00:22:57;98920.59;;;-5.14;57.96
44138;BME280;29800;55.942;37.314;2023-03-11T00:25:26;98919.25;;;-5.10;57.83
44138;BME280;29800;55.942;37.314;2023-03-11T00:27:53;98919.25;;;-5.10;57.93
44138;BME280;29800;55.942;37.314;2023-03-11T00:30:20;98925.94;;;-5.14;58.00
44138;BME280;29800;55.942;37.314;2023-03-11T00:32:47;98924.91;;;-5.13;58.10
44138;BME280;29800;55.942;37.314;2023-03-11T00:35:17;98930.94;;;-5.11;58.42
44138;BME280;29800;55.942;37.314;2023-03-11T00:37:45;98926.44;;;-5.11;58.48
44138;BME280;29800;55.942;37.314;2023-03-11T00:40:14;98923.41;;;-5.08;58.60
44138;BME280;29800;55.942;37.314;2023-03-11T00:42:42;98920.91;;;-5.09;58.44
44138;BME280;29800;55.942;37.314;2023-03-11T00:45:10;98924.06;;;-5.06;58.03
44138;BME280;29800;55.942;37.314;2023-03-11T00:47:37;98923.41;;;-5.08;58.31
44138;BME280;29800;55.942;37.314;2023-03-11T00:50:04;98913.56;;;-5.07;58.44
44138;BME280;29800;55.942;37.314;2023-03-11T00:52:30;98920.75;;;-5.08;58.37
44138;BME280;29800;55.942;37.314;2023-03-11T00:54:57;98922.56;;;-5.08;58.91
44138;BME280;29800;55.942;37.314;2023-03-11T00:57:24;98920.09;;;-5.10;58.67
44138;BME280;29800;55.942;37.314;2023-03-11T00:59:52;98911.72;;;-5.07;58.88
44138;BME280;29800;55.942;37.314;2023-03-11T01:02:20;98924.06;;;-5.06;58.85
44138;BME280;29800;55.942;37.314;2023-03-11T01:04:52;98929.25;;;-5.04;58.90
44138;BME280;29800;55.942;37.314;2023-03-11T01:07:19;98924.72;;;-5.04;58.87
44138;BME280;29800;55.942;37.314;2023-03-11T01:09:45;98920.09;;;-5.02;59.13
44138;BME280;29800;55.942;37.314;2023-03-11T01:12:11;98908.72;;;-5.04;59.19
44138;BME280;29800;55.942;37.314;2023-03-11T01:14:38;98914.06;;;-5.04;59.04
44138;BME280;29800;55.942;37.314;2023-03-11T01:17:04;98910.72;;;-5.06;59.08
44138;BME280;29800;55.942;37.314;2023-03-11T01:19:30;98910.06;;;-5.08;59.46
44138;BME280;29800;55.942;37.314;2023-03-11T01:21:56;98907.41;;;-5.08;59.47
44138;BME280;29800;55.942;37.314;2023-03-11T01:24:23;98914.75;;;-5.10;59.28
44138;BME280;29800;55.942;37.314;2023-03-11T01:26:49;98915.59;;;-5.09;59.39
44138;BME280;29800;55.942;37.314;2023-03-11T01:29:16;98909.41;;;-5.10;59.45
44138;BME280;29800;55.942;37.314;2023-03-11T01:31:42;98919.25;;;-5.10;59.51
44138;BME280;29800;55.942;37.314;2023-03-11T01:34:08;98907.75;;;-5.11;59.34
44138;BME280;29800;55.942;37.314;2023-03-11T01:36:35;98913.41;;;-5.14;59.47
44138;BME280;29800;55.942;37.314;2023-03-11T01:39:01;98903.06;;;-5.17;59.87
44138;BME280;29800;55.942;37.314;2023-03-11T01:41:28;98902.25;;;-5.18;59.93
44138;BME280;29800;55.942;37.314;2023-03-11T01:43:55;98908.41;;;-5.17;60.13
44138;BME280;29800;55.942;37.314;2023-03-11T01:46:34;98909.25;;;-5.17;60.02
44138;BME280;29800;55.942;37.314;2023-03-11T01:49:04;98913.09;;;-5.19;59.88
44138;BME280;29800;55.942;37.314;2023-03-11T01:51:43;98911.41;;;-5.20;59.92
44138;BME280;29800;55.942;37.314;2023-03-11T01:56:49;98902.91;;;-5.24;60.23
44138;BME280;29800;55.942;37.314;2023-03-11T01:59:20;98903.44;;;-5.28;60.24
44138;BME280;29800;55.942;37.314;2023-03-11T02:04:27;98906.44;;;-5.40;60.57
44138;BME280;29800;55.942;37.314;2023-03-11T02:06:56;98910.13;;;-5.41;60.80
44138;BME280;29800;55.942;37.314;2023-03-11T02:09:23;98905.94;;;-5.43;61.39
44138;BME280;29800;55.942;37.314;2023-03-11T02:11:52;98899.78;;;-5.44;61.24
44138;BME280;29800;55.942;37.314;2023-03-11T02:14:19;98907.78;;;-5.44;61.25
44138;BME280;29800;55.942;37.314;2023-03-11T02:16:46;98916.13;;;-5.47;61.23
44138;BME280;29800;55.942;37.314;2023-03-11T02:22:03;98905.28;;;-5.45;61.62
44138;BME280;29800;55.942;37.314;2023-03-11T02:24:44;98905.94;;;-5.43;61.25
44138;BME280;29800;55.942;37.314;2023-03-11T02:27:13;98894.63;;;-5.45;61.55
44138;BME280;29800;55.942;37.314;2023-03-11T02:29:45;98901.25;;;-5.41;61.48
44138;BME280;29800;55.942;37.314;2023-03-11T02:32:15;98903.59;;;-5.46;61.76
44138;BME280;29800;55.942;37.314;2023-03-11T02:34:43;98894.94;;;-5.48;61.84
44138;BME280;29800;55.942;37.314;2023-03-11T02:37:13;98897.78;;;-5.50;61.73
44138;BME280;29800;55.942;37.314;2023-03-11T02:39:49;98900.28;;;-5.48;61.85
44138;BME280;29800;55.942;37.314;2023-03-11T02:42:22;98898.28;;;-5.46;61.58
44138;BME280;29800;55.942;37.314;2023-03-11T02:44:56;98903.44;;;-5.45;61.50
44138;BME280;29800;55.942;37.314;2023-03-11T02:47:27;98895.09;;;-5.42;61.81
44138;BME280;29800;55.942;37.314;2023-03-11T02:49:55;98885.41;;;-5.43;61.63
44138;BME280;29800;55.942;37.314;2023-03-11T02:52:24;98886.44;;;-5.44;61.68
44138;BME280;29800;55.942;37.314;2023-03-11T02:54:51;98888.09;;;-5.43;61.47
44138;BME280;29800;55.942;37.314;2023-03-11T02:57:17;98883.59;;;-5.42;61.20
44138;BME280;29800;55.942;37.314;2023-03-11T02:59:43;98884.09;;;-5.39;61.40
44138;BME280;29800;55.942;37.314;2023-03-11T03:02:09;98891.13;;;-5.38;61.24
44138;BME280;29800;55.942;37.314;2023-03-11T03:04:37;98896.44;;;-5.38;61.29
44138;BME280;29800;55.942;37.314;2023-03-11T03:07:03;98893.63;;;-5.36;61.27
44138;BME280;29800;55.942;37.314;2023-03-11T03:09:30;98898.41;;;-5.31;60.93
44138;BME280;29800;55.942;37.314;2023-03-11T03:11:57;98901.78;;;-5.29;61.01
44138;BME280;29800;55.942;37.314;2023-03-11T03:14:23;98899.44;;;-5.32;61.37
44138;BME280;29800;55.942;37.314;2023-03-11T03:16:49;98900.09;;;-5.30;61.06
44138;BME280;29800;55.942;37.314;2023-03-11T03:19:17;98896.59;;;-5.31;61.08
44138;BME280;29800;55.942;37.314;2023-03-11T03:21:44;98887.25;;;-5.27;60.80
44138;BME280;29800;55.942;37.314;2023-03-11T03:24:11;98888.09;;;-5.26;60.66
44138;BME280;29800;55.942;37.314;2023-03-11T03:26:37;98893.78;;;-5.29;60.71
44138;BME280;29800;55.942;37.314;2023-03-11T03:29:06;98890.25;;;-5.30;60.42
44138;BME280;29800;55.942;37.314;2023-03-11T03:31:32;98894.75;;;-5.30;60.21
44138;BME280;29800;55.942;37.314;2023-03-11T03:34:00;98890.25;;;-5.30;60.01
44138;BME280;29800;55.942;37.314;2023-03-11T03:36:26;98893.06;;;-5.23;59.69
44138;BME280;29800;55.942;37.314;2023-03-11T03:38:58;98885.75;;;-5.21;59.43
44138;BME280;29800;55.942;37.314;2023-03-11T03:41:29;98881.41;;;-5.22;59.48
44138;BME280;29800;55.942;37.314;2023-03-11T03:43:56;98887.88;;;-5.17;59.25
44138;BME280;29800;55.942;37.314;2023-03-11T03:46:24;98880.75;;;-5.16;58.82
44138;BME280;29800;55.942;37.314;2023-03-11T03:48:54;98888.41;;;-5.13;58.95
44138;BME280;29800;55.942;37.314;2023-03-11T03:51:20;98882.38;;;-5.15;59.15
44138;BME280;29800;55.942;37.314;2023-03-11T03:54:19;98876.06;;;-5.14;59.30
44138;BME280;29800;55.942;37.314;2023-03-11T03:56:45;98880.22;;;-5.11;59.14
44138;BME280;29800;55.942;37.314;2023-03-11T03:59:12;98869.56;;;-5.11;58.89
44138;BME280;29800;55.942;37.314;2023-03-11T04:01:43;98868.38;;;-5.09;59.47
44138;BME280;29800;55.942;37.314;2023-03-11T04:04:09;98868.03;;;-5.06;59.24
44138;BME280;29800;55.942;37.314;2023-03-11T04:06:35;98873.53;;;-5.07;58.99
44138;BME280;29800;55.942;37.314;2023-03-11T04:09:06;98872.72;;;-5.08;59.49
44138;BME280;29800;55.942;37.314;2023-03-11T04:11:34;98870.69;;;-5.06;59.46
44138;BME280;29800;55.942;37.314;2023-03-11T04:14:02;98867.03;;;-5.05;59.44
44138;BME280;29800;55.942;37.314;2023-03-11T04:16:30;98873.38;;;-5.06;59.49
44138;BME280;29800;55.942;37.314;2023-03-11T04:19:02;98865.03;;;-5.03;60.02
44138;BME280;29800;55.942;37.314;2023-03-11T04:21:32;98856.03;;;-5.02;60.29
44138;BME280;29800;55.942;37.314;2023-03-11T04:23:58;98862.66;;;-4.97;60.02
44138;BME280;29800;55.942;37.314;2023-03-11T04:26:29;98852.97;;;-4.99;60.15
44138;BME280;29800;55.942;37.314;2023-03-11T04:28:56;98846.13;;;-4.85;60.44
44138;BME280;29800;55.942;37.314;2023-03-11T04:31:24;98844.06;;;-4.74;60.55
44138;BME280;29800;55.942;37.314;2023-03-11T04:33:50;98845.84;;;-4.58;61.27
44138;BME280;29800;55.942;37.314;2023-03-11T04:36:17;98835.41;;;-4.45;61.80
44138;BME280;29800;55.942;37.314;2023-03-11T04:38:43;98833.34;;;-4.35;60.54
44138;BME280;29800;55.942;37.314;2023-03-11T04:41:11;98841.31;;;-4.27;60.62
44138;BME280;29800;55.942;37.314;2023-03-11T04:43:39;98840.59;;;-4.20;60.74
44138;BME280;29800;55.942;37.314;2023-03-11T04:46:05;98840.94;;;-4.23;61.10
44138;BME280;29800;55.942;37.314;2023-03-11T04:48:32;98827.06;;;-4.19;61.20
44138;BME280;29800;55.942;37.314;2023-03-11T04:50:59;98833.22;;;-4.18;61.79
44138;BME280;29800;55.942;37.314;2023-03-11T04:53:27;98835.22;;;-4.12;61.12
44138;BME280;29800;55.942;37.314;2023-03-11T04:55:54;98828.84;;;-4.11;nan
44138;BME280;29800;55.942;37.314;2023-03-11T04:58:21;98828.69;;;-4.10;61.45
44138;BME280;29800;55.942;37.314;2023-03-11T05:00:47;98821.50;;;-4.09;61.73
44138;BME280;29800;55.942;37.314;2023-03-11T05:03:14;98820.84;;;-4.11;62.00
44138;BME280;29800;55.942;37.314;2023-03-11T05:05:41;98830.16;;;-4.07;61.88
44138;BME280;29800;55.942;37.314;2023-03-11T05:08:08;98827.78;;;-4.02;61.96
44138;BME280;29800;55.942;37.314;2023-03-11T05:10:34;98824.03;;;-3.93;61.92
44138;BME280;29800;55.942;37.314;2023-03-11T05:13:04;98815.63;;;-3.66;62.16
44138;BME280;29800;55.942;37.314;2023-03-11T05:15:34;98810.94;;;-3.49;61.00
44138;BME280;29800;55.942;37.314;2023-03-11T05:18:03;98824.25;;;-3.41;60.79
44138;BME280;29800;55.942;37.314;2023-03-11T05:20:29;98812.16;;;-3.52;60.77
44138;BME280;29800;55.942;37.314;2023-03-11T05:22:58;98821.09;;;-3.60;61.23
44138;BME280;29800;55.942;37.314;2023-03-11T05:25:24;98817.06;;;-3.56;61.16
44138;BME280;29800;55.942;37.314;2023-03-11T05:27:51;98823.22;;;-3.55;61.10
44138;BME280;29800;55.942;37.314;2023-03-11T05:30:18;98815.28;;;-3.63;60.86
44138;BME280;29800;55.942;37.314;2023-03-11T05:32:45;98813.59;;;-3.64;61.48
44138;BME280;29800;55.942;37.314;2023-03-11T05:35:12;98818.13;;;-3.65;61.32
44138;BME280;29800;55.942;37.314;2023-03-11T05:37:39;98813.50;;;-3.71;61.37
44138;BME280;29800;55.942;37.314;2023-03-11T05:40:07;98811.72;;;-3.79;61.22
44138;BME280;29800;55.942;37.314;2023-03-11T05:42:37;98806.00;;;-3.76;62.47
44138;BME280;29800;55.942;37.314;2023-03-11T05:45:08;98815.16;;;-3.70;61.99
44138;BME280;29800;55.942;37.314;2023-03-11T05:47:35;98808.72;;;-3.61;61.81
44138;BME280;29800;55.942;37.314;2023-03-11T05:50:04;98807.78;;;-3.68;61.64
44138;BME280;29800;55.942;37.314;2023-03-11T05:52:30;98808.72;;;-3.61;62.42
44138;BME280;29800;55.942;37.314;2023-03-11T05:54:58;98809.22;;;-3.57;61.75
44138;BME280;29800;55.942;37.314;2023-03-11T05:57:28;98816.31;;;-3.49;61.56
44138;BME280;29800;55.942;37.314;2023-03-11T05:59:55;98812.97;;;-3.52;61.48
44138;BME280;29800;55.942;37.314;2023-03-11T06:02:22;98808.00;;;-3.55;62.07
44138;BME280;29800;55.942;37.314;2023-03-11T06:04:49;98804.38;;;-3.62;61.86
44138;BME280;29800;55.942;37.314;2023-03-11T06:07:15;98814.91;;;-3.60;62.28
44138;BME280;29800;55.942;37.314;2023-03-11T06:09:44;98809.13;;;-3.49;63.07
44138;BME280;29800;55.942;37.314;2023-03-11T06:12:15;98803.50;;;-3.54;61.71
44138;BME280;29800;55.942;37.314;2023-03-11T06:14:52;98807.28;;;-3.48;62.24
44138;BME280;29800;55.942;37.314;2023-03-11T06:17:19;98796.38;;;-3.62;62.13
44138;BME280;29800;55.942;37.314;2023-03-11T06:19:46;98799.31;;;-3.57;62.71
44138;BME280;29800;55.942;37.314;2023-03-11T06:22:12;98801.91;;;-3.48;62.42
44138;BME280;29800;55.942;37.314;2023-03-11T06:24:38;98798.25;;;-3.47;61.87
44138;BME280;29800;55.942;37.314;2023-03-11T06:27:06;98808.75;;;-3.46;62.64
44138;BME280;29800;55.942;37.314;2023-03-11T06:29:34;98795.09;;;-3.36;61.84
44138;BME280;29800;55.942;37.314;2023-03-11T06:32:01;98802.13;;;-3.35;61.92
44138;BME280;29800;55.942;37.314;2023-03-11T06:34:28;98800.44;;;-3.36;62.36
44138;BME280;29800;55.942;37.314;2023-03-11T06:36:55;98797.03;;;-3.45;61.90
44138;BME280;29800;55.942;37.314;2023-03-11T06:39:22;98802.94;;;-3.35;62.28
44138;BME280;29800;55.942;37.314;2023-03-11T06:41:50;98797.31;;;-3.40;62.02
44138;BME280;29800;55.942;37.314;2023-03-11T06:44:17;98796.22;;;-3.45;62.51
44138;BME280;29800;55.942;37.314;2023-03-11T06:46:43;98794.28;;;-3.37;61.85
44138;BME280;29800;55.942;37.314;2023-03-11T06:49:09;98798.25;;;-3.47;62.26
44138;BME280;29800;55.942;37.314;2023-03-11T06:51:38;98793.81;;;-3.40;62.29
44138;BME280;29800;55.942;37.314;2023-03-11T06:54:05;98786.88;;;-3.49;62.37
44138;BME280;29800;55.942;37.314;2023-03-11T06:56:32;98784.63;;;-3.61;62.85
44138;BME280;29800;55.942;37.314;2023-03-11T06:59:04;98776.75;;;-3.77;63.72
44138;BME280;29800;55.942;37.314;2023-03-11T07:01:32;98778.44;;;-3.76;63.45
44138;BME280;29800;55.942;37.314;2023-03-11T07:04:01;98769.78;;;-3.78;63.92
44138;BME280;29800;55.942;37.314;2023-03-11T07:06:28;98772.97;;;-3.83;63.54
44138;BME280;29800;55.942;37.314;2023-03-11T07:09:12;98771.50;;;-3.85;63.85
44138;BME280;29800;55.942;37.314;2023-03-11T07:11:42;98773.81;;;-3.82;63.76
44138;BME280;29800;55.942;37.314;2023-03-11T07:14:12;98773.16;;;-3.84;64.17
44138;BME280;29800;55.942;37.314;2023-03-11T07:16:43;98765.59;;;-3.81;63.99
44138;BME280;29800;55.942;37.314;2023-03-11T07:19:19;98765.91;;;-3.61;63.08
44138;BME280;29800;55.942;37.314;2023-03-11T07:21:46;98754.38;;;-3.76;64.42
44138;BME280;29800;55.942;37.314;2023-03-11T07:24:13;98754.38;;;-3.76;64.42
44138;BME280;29800;55.942;37.314;2023-03-11T07:26:40;98750.69;;;-3.75;64.54
44138;BME280;29800;55.942;37.314;2023-03-11T07:29:07;98746.00;;;-3.73;64.83
44138;BME280;29800;55.942;37.314;2023-03-11T07:31:35;98755.69;;;-3.72;64.48
44138;BME280;29800;55.942;37.314;2023-03-11T07:34:04;98750.25;;;-3.64;64.66
44138;BME280;29800;55.942;37.314;2023-03-11T07:36:31;98741.38;;;-3.49;64.68
44138;BME280;29800;55.942;37.314;2023-03-11T07:39:02;98732.91;;;-3.38;64.56
44138;BME280;29800;55.942;37.314;2023-03-11T07:41:31;98733.94;;;-3.24;65.06
44138;BME280;29800;55.942;37.314;2023-03-11T07:43:59;98730.78;;;-3.13;64.18
44138;BME280;29800;55.942;37.314;2023-03-11T07:46:27;98730.50;;;-3.03;63.60
44138;BME280;29800;55.942;37.314;2023-03-11T07:48:54;98718.19;;;-2.98;63.55
44138;BME280;29800;55.942;37.314;2023-03-11T07:51:26;98718.25;;;-2.91;63.10
44138;BME280;29800;55.942;37.314;2023-03-11T07:53:54;98718.78;;;-2.81;62.88
44138;BME280;29800;55.942;37.314;2023-03-11T07:56:22;98707.22;;;-2.66;62.74
44138;BME280;29800;55.942;37.314;2023-03-11T07:58:49;98701.34;;;-2.55;62.44
44138;BME280;29800;55.942;37.314;2023-03-11T08:01:20;98696.38;;;-2.36;62.22
44138;BME280;29800;55.942;37.314;2023-03-11T08:03:48;98696.22;;;-2.28;61.57
44138;BME280;29800;55.942;37.314;2023-03-11T08:06:22;98694.66;;;-2.23;61.25
44138;BME280;29800;55.942;37.314;2023-03-11T08:08:49;98693.16;;;-2.25;61.19
44138;BME280;29800;55.942;37.314;2023-03-11T08:11:16;98688.06;;;-2.20;61.03
44138;BME280;29800;55.942;37.314;2023-03-11T08:13:44;98678.84;;;-2.11;60.86
44138;BME280;29800;55.942;37.314;2023-03-11T08:16:13;98685.44;;;-2.13;60.65
44138;BME280;29800;55.942;37.314;2023-03-11T08:18:41;98677.56;;;-2.15;60.15
44138;BME280;29800;55.942;37.314;2023-03-11T08:21:10;98677.38;;;-2.13;60.54
44138;BME280;29800;55.942;37.314;2023-03-11T08:23:37;98674.97;;;-2.08;60.18
44138;BME280;29800;55.942;37.314;2023-03-11T08:26:05;98656.97;;;-2.14;59.86
44138;BME280;29800;55.942;37.314;2023-03-11T08:28:32;98669.53;;;-2.15;60.08
44138;BME280;29800;55.942;37.314;2023-03-11T08:30:58;98672.91;;;-2.06;59.58
44138;BME280;29800;55.942;37.314;2023-03-11T08:33:25;98673.41;;;-1.96;59.91
44138;BME280;29800;55.942;37.314;2023-03-11T08:35:53;98668.47;;;-1.92;59.14
44138;BME280;29800;55.942;37.314;2023-03-11T08:38:19;98663.50;;;-1.95;59.25
44138;BME280;29800;55.942;37.314;2023-03-11T08:40:46;98662.31;;;-1.86;59.41
44138;BME280;29800;55.942;37.314;2023-03-11T08:43:13;98655.41;;;-1.74;60.15
44138;BME280;29800;55.942;37.314;2023-03-11T08:45:40;98656.38;;;-1.81;59.17
44138;BME280;29800;55.942;37.314;2023-03-11T08:48:09;98645.66;;;-1.81;59.27
44138;BME280;29800;55.942;37.314;2023-03-11T08:50:35;98650.03;;;-1.74;58.94
44138;BME280;29800;55.942;37.314;2023-03-11T08:53:01;98649.69;;;-1.64;58.67
44138;BME280;29800;55.942;37.314;2023-03-11T08:55:28;98641.16;;;-1.68;58.49
44138;BME280;29800;55.942;37.314;2023-03-11T08:57:55;98638.66;;;-1.76;58.51
44138;BME280;29800;55.942;37.314;2023-03-11T09:00:22;98625.25;;;-1.76;59.02
44138;BME280;29800;55.942;37.314;2023-03-11T09:02:48;98629.75;;;-1.83;58.85
44138;BME280;29800;55.942;37.314;2023-03-11T09:05:14;98641.34;;;-1.76;59.08
44138;BME280;29800;55.942;37.314;2023-03-11T09:07:41;98628.56;;;-1.74;58.30
44138;BME280;29800;55.942;37.314;2023-03-11T09:10:10;98633.78;;;-1.65;58.75
44138;BME280;29800;55.942;37.314;2023-03-11T09:12:37;98637.50;;;-1.60;58.45
44138;BME280;29800;55.942;37.314;2023-03-11T09:15:04;98631.94;;;-1.58;58.29
44138;BME280;29800;55.942;37.314;2023-03-11T09:17:31;98629.88;;;-1.56;58.01
44138;BME280;29800;55.942;37.314;2023-03-11T09:19:59;98624.28;;;-1.61;57.88
44138;BME280;29800;55.942;37.314;2023-03-11T09:22:25;98620.41;;;-1.52;58.39
44138;BME280;29800;55.942;37.314;2023-03-11T09:24:52;98629.88;;;-1.56;57.58
44138;BME280;29800;55.942;37.314;2023-03-11T09:27:18;98617.88;;;-1.67;57.68
44138;BME280;29800;55.942;37.314;2023-03-11T09:29:45;98614.13;;;-1.73;57.69
44138;BME280;29800;55.942;37.314;2023-03-11T09:32:13;98618.22;;;-1.77;58.33
44138;BME280;29800;55.942;37.314;2023-03-11T09:34:40;98609.94;;;-1.82;58.66
44138;BME280;29800;55.942;37.314;2023-03-11T09:37:06;98611.19;;;-1.78;59.21
44138;BME280;29800;55.942;37.314;2023-03-11T09:39:33;98606.78;;;-1.92;58.95
44138;BME280;29800;55.942;37.314;2023-03-11T09:42:53;98601.19;;;-1.97;59.74
44138;BME280;29800;55.942;37.314;2023-03-11T09:45:03;98611.03;;;-2.05;59.69
44138;BME280;29800;55.942;37.314;2023-03-11T09:47:56;98597.59;;;-2.11;59.52
44138;BME280;29800;55.942;37.314;2023-03-11T09:50:28;98583.56;;;-2.07;59.72
44138;BME280;29800;55.942;37.314;2023-03-11T09:55:48;98577.22;;;-2.34;61.80
44138;BME280;29800;55.942;37.314;2023-03-11T09:58:44;98570.91;;;-2.26;61.91
44138;BME280;29800;55.942;37.314;2023-03-11T10:04:41;98548.63;;;-2.20;61.46
44138;BME280;29800;55.942;37.314;2023-03-11T10:07:01;98552.97;;;-2.19;62.06
44138;BME280;29800;55.942;37.314;2023-03-11T10:09:46;98549.72;;;-2.14;62.38
44138;BME280;29800;55.942;37.314;2023-03-11T10:12:43;98533.44;;;-2.13;62.35
44138;BME280;29800;55.942;37.314;2023-03-11T10:21:40;98512.03;;;-2.06;62.12
44138;BME280;29800;55.942;37.314;2023-03-11T10:24:46;98506.81;;;-2.14;62.13
44138;BME280;29800;55.942;37.314;2023-03-11T10:27:25;98517.53;;;-2.14;61.78
44138;BME280;29800;55.942;37.314;2023-03-11T10:30:19;98501.66;;;-2.16;61.96
44138;BME280;29800;55.942;37.314;2023-03-11T10:33:01;98495.03;;;-2.13;62.11
44138;BME280;29800;55.942;37.314;2023-03-11T10:35:41;98500.44;;;-2.07;62.00
44138;BME280;29800;55.942;37.314;2023-03-11T10:38:20;98494.28;;;-2.00;61.68
44138;BME280;29800;55.942;37.314;2023-03-11T10:40:50;98502.59;;;-1.89;61.80
44138;BME280;29800;55.942;37.314;2023-03-11T10:43:20;98493.50;;;-1.94;61.02
44138;BME280;29800;55.942;37.314;2023-03-11T10:45:48;98483.41;;;-1.92;60.98
44138;BME280;29800;55.942;37.314;2023-03-11T10:48:17;98482.78;;;-1.88;60.85
44138;BME280;29800;55.942;37.314;2023-03-11T10:50:53;98476.63;;;-1.88;60.03
44138;BME280;29800;55.942;37.314;2023-03-11T10:53:22;98456.97;;;-1.95;61.09
44138;BME280;29800;55.942;37.314;2023-03-11T10:55:53;98461.94;;;-1.92;60.77
44138;BME280;29800;55.942;37.314;2023-03-11T10:58:26;98458.84;;;-1.89;60.30
44138;BME280;29800;55.942;37.314;2023-03-11T11:01:14;98454.97;;;-1.80;60.33
44138;BME280;29800;55.942;37.314;2023-03-11T11:03:43;98452.69;;;-1.83;60.14
44138;BME280;29800;55.942;37.314;2023-03-11T11:06:27;98439.91;;;-1.81;60.00
44138;BME280;29800;55.942;37.314;2023-03-11T11:09:16;98438.69;;;-1.72;60.46
44138;BME280;29800;55.942;37.314;2023-03-11T11:12:12;98434.97;;;-1.71;59.77
44138;BME280;29800;55.942;37.314;2023-03-11T11:14:50;98420.50;;;-1.83;59.63
44138;BME280;29800;55.942;37.314;2023-03-11T11:17:25;98422.78;;;-1.80;59.88
44138;BME280;29800;55.942;37.314;2023-03-11T11:19:54;98422.50;;;-1.98;59.82
44138;BME280;29800;55.942;37.314;2023-03-11T11:22:23;98418.81;;;-1.97;60.24
44138;BME280;29800;55.942;37.314;2023-03-11T11:24:52;98416.75;;;-1.95;60.64
44138;BME280;29800;55.942;37.314;2023-03-11T11:27:24;98409.53;;;-2.01;59.89
44138;BME280;29800;55.942;37.314;2023-03-11T11:32:34;98418.72;;;-2.24;60.72
44138;BME280;29800;55.942;37.314;2023-03-11T11:35:04;98397.72;;;-2.14;62.55
44138;BME280;29800;55.942;37.314;2023-03-11T11:37:36;98390.47;;;-2.13;62.14
44138;BME280;29800;55.942;37.314;2023-03-11T11:42:54;98387.25;;;-1.89;61.13
44138;BME280;29800;55.942;37.314;2023-03-11T11:47:52;98370.53;;;-1.91;60.83
44138;BME280;29800;55.942;37.314;2023-03-11T11:50:39;98369.34;;;-1.75;61.04
44138;BME280;29800;55.942;37.314;2023-03-11T11:53:41;98369.97;;;-1.59;60.62
44138;BME280;29800;55.942;37.314;2023-03-11T11:56:09;98369.75;;;-1.58;60.11
44138;BME280;29800;55.942;37.314;2023-03-11T11:58:35;98372.66;;;-1.59;60.16
44138;BME280;29800;55.942;37.314;2023-03-11T12:12:52;98349.97;;;-1.50;60.30
44138;BME280;29800;55.942;37.314;2023-03-11T12:15:34;98349.75;;;-1.55;60.45
44138;BME280;29800;55.942;37.314;2023-03-11T12:18:03;98344.59;;;-1.57;60.50
44138;BME280;29800;55.942;37.314;2023-03-11T12:20:45;98355.72;;;-1.53;60.70
44138;BME280;29800;55.942;37.314;2023-03-11T12:23:41;98359.44;;;-1.54;60.80
44138;BME280;29800;55.942;37.314;2023-03-11T12:26:20;98343.34;;;-1.54;60.80
44138;BME280;29800;55.942;37.314;2023-03-11T12:28:57;98344.59;;;-1.50;60.94
44138;BME280;29800;55.942;37.314;2023-03-11T12:31:27;98335.94;;;-1.52;60.79
44138;BME280;29800;55.942;37.314;2023-03-11T12:33:59;98334.69;;;-1.56;61.25
44138;BME280;29800;55.942;37.314;2023-03-11T12:36:30;98340.84;;;-1.62;61.23
44138;BME280;29800;55.942;37.314;2023-03-11T12:39:04;98339.63;;;-1.67;61.76
44138;BME280;29800;55.942;37.314;2023-03-11T12:41:38;98342.13;;;-1.65;61.82
44138;BME280;29800;55.942;37.314;2023-03-11T12:44:28;98343.78;;;-1.51;61.49
44138;BME280;29800;55.942;37.314;2023-03-11T12:49:31;98343.78;;;-1.57;61.70
44138;BME280;29800;55.942;37.314;2023-03-11T12:57:33;98323.75;;;-1.55;62.19
44138;BME280;29800;55.942;37.314;2023-03-11T13:06:14;98310.31;;;-1.55;62.26
44138;BME280;29800;55.942;37.314;2023-03-11T13:08:47;98308.44;;;-1.61;62.37
44138;BME280;29800;55.942;37.314;2023-03-11T13:16:51;98294.22;;;-1.61;62.69
44138;BME280;29800;55.942;37.314;2023-03-11T13:21:54;98289.25;;;-1.64;62.64
44138;BME280;29800;55.942;37.314;2023-03-11T13:32:30;98257.06;;;-1.64;62.85
44138;BME280;29800;55.942;37.314;2023-03-11T13:35:03;98261.22;;;-1.75;63.02
44138;BME280;29800;55.942;37.314;2023-03-11T13:40:35;98229.84;;;-1.75;64.26
44138;BME280;29800;55.942;37.314;2023-03-11T13:43:10;98236.03;;;-1.81;64.04
44138;BME280;29800;55.942;37.314;2023-03-11T13:45:38;98243.03;;;-1.80;63.98
44138;BME280;29800;55.942;37.314;2023-03-11T13:51:07;98239.94;;;-1.63;63.83
44138;BME280;29800;55.942;37.314;2023-03-11T13:53:43;98230.66;;;-1.74;63.87
44138;BME280;29800;55.942;37.314;2023-03-11T13:56:25;98237.69;;;-1.80;63.97
44138;BME280;29800;55.942;37.314;2023-03-11T13:58:53;98233.16;;;-1.93;64.24
44138;BME280;29800;55.942;37.314;2023-03-11T14:01:19;98222.41;;;-1.93;65.10
44138;BME280;29800;55.942;37.314;2023-03-11T14:03:46;98214.56;;;-1.88;64.62
44138;BME280;29800;55.942;37.314;2023-03-11T14:06:17;98206.94;;;-1.84;64.58
44138;BME280;29800;55.942;37.314;2023-03-11T14:08:52;98208.59;;;-1.83;64.83
44138;BME280;29800;55.942;37.314;2023-03-11T14:11:19;98201.97;;;-1.87;64.77
44138;BME280;29800;55.942;37.314;2023-03-11T14:13:50;98206.31;;;-1.86;64.74
44138;BME280;29800;55.942;37.314;2023-03-11T14:16:37;98205.50;;;-1.80;65.17
44138;BME280;29800;55.942;37.314;2023-03-11T14:19:16;98199.06;;;-1.72;64.79
44138;BME280;29800;55.942;37.314;2023-03-11T14:21:47;98194.13;;;-1.69;64.68